Time;durP1;ratioP1;P1;durP2;ratioP2;P2;SDS_P1;SDS_P2;PMS_P1;PMS_P2;Temp;Humidity;BMP_temperature;BMP_pressure;BME280_temperature;BME280_humidity;BME280_pressure;Samples;Min_cycle;Max_cycle;Signal;HPM_P1;HPM_P2
2024/03/20 00:00:21;;;;;;;19.80;11.95;;;5.70;99.90;;;;;;5087907;28;20067;-81
2024/03/20 00:03:08;;;;;;;17.73;11.50;;;5.70;99.90;;;;;;5064749;28;20414;-82
2024/03/20 00:05:54;;;;;;;19.33;12.32;;;5.60;99.90;;;;;;5074511;28;20097;-78
2024/03/20 00:08:40;;;;;;;21.08;13.20;;;5.70;99.90;;;;;;5084955;28;20040;-79
2024/03/20 00:11:28;;;;;;;22.67;13.73;;;5.70;99.90;;;;;;5076979;28;20114;-82
2024/03/20 00:14:15;;;;;;;26.92;13.48;;;5.70;99.90;;;;;;5063025;28;20059;-81
2024/03/20 00:17:03;;;;;;;20.23;12.23;;;5.70;99.90;;;;;;5069823;28;20051;-80
2024/03/20 00:19:50;;;;;;;20.63;13.50;;;5.70;99.90;;;;;;5079921;28;20052;-81
2024/03/20 00:22:37;;;;;;;19.60;12.52;;;5.60;99.90;;;;;;5074925;28;20342;-81
2024/03/20 00:25:24;;;;;;;17.75;12.13;;;5.60;99.90;;;;;;5060064;28;20066;-79
2024/03/20 00:28:10;;;;;;;16.67;12.88;;;5.50;99.90;;;;;;5059267;28;20040;-82
2024/03/20 00:30:57;;;;;;;21.45;13.85;;;5.50;99.90;;;;;;5074217;28;20044;-83
2024/03/20 00:33:45;;;;;;;18.58;12.15;;;5.50;99.90;;;;;;5080391;28;20054;-80
2024/03/20 00:36:31;;;;;;;23.52;13.82;;;5.40;99.90;;;;;;5081929;28;20565;-79
2024/03/20 00:39:18;;;;;;;20.00;13.02;;;5.30;99.90;;;;;;5054712;28;20054;-81
2024/03/20 00:42:04;;;;;;;17.90;12.57;;;5.30;99.90;;;;;;5067751;28;20109;-79
2024/03/20 00:44:51;;;;;;;20.40;13.00;;;5.30;99.90;;;;;;5073096;28;20186;-82
2024/03/20 00:47:38;;;;;;;17.70;12.85;;;5.20;99.90;;;;;;5073860;28;20058;-83
2024/03/20 00:50:24;;;;;;;18.27;12.98;;;5.20;99.90;;;;;;5073465;28;20056;-81
2024/03/20 00:53:11;;;;;;;23.30;14.00;;;5.20;99.90;;;;;;5074398;28;20081;-79
2024/03/20 00:55:58;;;;;;;21.85;13.75;;;5.10;99.90;;;;;;5073430;28;20048;-81
2024/03/20 00:58:45;;;;;;;18.50;13.48;;;5.10;99.90;;;;;;5073464;28;20062;-83
2024/03/20 01:01:32;;;;;;;20.95;13.63;;;5.20;99.90;;;;;;5072046;28;20470;-81
2024/03/20 01:04:18;;;;;;;23.23;15.85;;;5.20;99.90;;;;;;5075215;28;20055;-80
2024/03/20 01:07:05;;;;;;;21.23;15.30;;;5.20;99.90;;;;;;5070791;28;20064;-82
2024/03/20 01:09:51;;;;;;;19.65;13.63;;;5.10;99.90;;;;;;5075484;28;20044;-81
2024/03/20 01:12:38;;;;;;;21.45;14.68;;;5.10;99.90;;;;;;5081682;28;20596;-79
2024/03/20 01:15:25;;;;;;;19.25;14.23;;;5.00;99.90;;;;;;5063900;28;20050;-79
2024/03/20 01:18:12;;;;;;;21.67;14.32;;;5.00;99.90;;;;;;5080707;28;20127;-80
2024/03/20 01:20:58;;;;;;;25.67;15.45;;;5.00;99.90;;;;;;5071757;28;20048;-79
2024/03/20 01:23:45;;;;;;;26.27;15.73;;;5.00;99.90;;;;;;5078856;28;20510;-79
2024/03/20 01:26:32;;;;;;;22.83;14.95;;;4.90;99.90;;;;;;5069668;28;20048;-82
2024/03/20 01:29:19;;;;;;;21.85;14.63;;;4.90;99.90;;;;;;5057369;28;20040;-82
2024/03/20 01:32:06;;;;;;;22.98;14.10;;;4.90;99.90;;;;;;5071841;28;20058;-81
2024/03/20 01:34:53;;;;;;;21.67;14.90;;;4.90;99.90;;;;;;5070765;28;20097;-82
2024/03/20 01:37:40;;;;;;;22.58;15.02;;;4.80;99.90;;;;;;5069823;28;20040;-78
2024/03/20 01:40:28;;;;;;;25.65;16.15;;;4.90;99.90;;;;;;5069752;28;20067;-80
2024/03/20 01:43:19;;;;;;;22.85;14.73;;;5.00;99.90;;;;;;5070357;28;20048;-81
2024/03/20 01:46:34;;;;;;;21.85;15.40;;;5.00;99.90;;;;;;5089612;28;20052;-81
2024/03/20 01:49:21;;;;;;;22.17;16.05;;;5.10;99.90;;;;;;5072844;28;20461;-80
2024/03/20 01:52:08;;;;;;;23.65;17.40;;;5.20;99.90;;;;;;5071538;28;20055;-80
2024/03/20 01:54:54;;;;;;;24.35;16.27;;;5.10;99.90;;;;;;5079040;28;20054;-79
2024/03/20 01:57:41;;;;;;;22.40;15.40;;;5.00;99.90;;;;;;5071164;28;20142;-79
2024/03/20 02:00:27;;;;;;;20.95;15.85;;;4.90;99.90;;;;;;5062434;28;20054;-81
2024/03/20 02:03:18;;;;;;;24.73;15.23;;;4.90;99.90;;;;;;5067504;28;20048;-82
2024/03/20 02:06:18;;;;;;;22.40;16.92;;;4.90;99.90;;;;;;5086468;28;20058;-82
2024/03/20 02:09:09;;;;;;;25.17;16.33;;;5.00;99.90;;;;;;5059741;28;20044;-80
2024/03/20 02:11:56;;;;;;;26.65;17.48;;;5.00;99.90;;;;;;5071590;28;20044;-82
2024/03/20 02:14:43;;;;;;;26.27;17.30;;;5.00;99.90;;;;;;5056341;28;20056;-80
2024/03/20 02:17:29;;;;;;;30.23;17.60;;;5.00;99.90;;;;;;5058037;28;20052;-81
2024/03/20 02:20:17;;;;;;;26.75;17.33;;;4.90;99.90;;;;;;5069818;28;20499;-81
2024/03/20 02:23:04;;;;;;;27.52;17.23;;;4.90;99.90;;;;;;5087912;28;20068;-80
2024/03/20 02:25:50;;;;;;;28.77;16.35;;;4.80;99.90;;;;;;5074493;28;20095;-82
2024/03/20 02:28:38;;;;;;;26.33;16.75;;;4.80;99.90;;;;;;5077841;28;20048;-80
2024/03/20 02:31:24;;;;;;;23.42;16.02;;;4.80;99.90;;;;;;5057052;28;20066;-81
2024/03/20 02:34:11;;;;;;;21.75;15.48;;;4.80;99.90;;;;;;5078640;28;20412;-78
2024/03/20 02:36:58;;;;;;;25.73;15.85;;;4.80;99.90;;;;;;5071135;28;20426;-82
2024/03/20 02:39:44;;;;;;;27.50;15.75;;;4.80;99.90;;;;;;5071932;28;20050;-77
2024/03/20 02:42:32;;;;;;;23.23;15.30;;;4.70;99.90;;;;;;5080135;28;20044;-81
2024/03/20 02:45:18;;;;;;;25.63;16.58;;;4.70;99.90;;;;;;5065765;28;20113;-82
2024/03/20 02:48:05;;;;;;;24.05;15.65;;;4.70;99.90;;;;;;5080180;28;20040;-79
2024/03/20 02:50:53;;;;;;;27.17;16.92;;;4.60;99.90;;;;;;5071945;28;20050;-80
2024/03/20 02:53:39;;;;;;;19.95;15.15;;;4.60;99.90;;;;;;5070816;28;20047;-80
2024/03/20 02:56:25;;;;;;;21.10;12.30;;;4.70;99.90;;;;;;5069699;28;20043;-82
2024/03/20 02:59:12;;;;;;;22.00;13.68;;;4.60;99.90;;;;;;5057447;28;20040;-82
2024/03/20 03:01:58;;;;;;;20.42;14.88;;;4.50;99.90;;;;;;5069926;28;20048;-80
2024/03/20 03:04:44;;;;;;;25.02;15.23;;;4.40;99.90;;;;;;5069377;28;20083;-81
2024/03/20 03:07:31;;;;;;;20.92;14.75;;;4.40;99.90;;;;;;5070514;28;20135;-80
2024/03/20 03:10:19;;;;;;;24.90;15.48;;;4.30;99.90;;;;;;5069970;28;20044;-81
2024/03/20 03:13:05;;;;;;;23.63;14.77;;;4.30;99.90;;;;;;5070869;28;20052;-80
2024/03/20 03:15:52;;;;;;;22.48;14.85;;;4.30;99.90;;;;;;5070844;28;20062;-78
2024/03/20 03:18:38;;;;;;;23.45;15.40;;;4.30;99.90;;;;;;5078995;28;20058;-79
2024/03/20 03:21:25;;;;;;;26.45;15.55;;;4.30;99.90;;;;;;5074586;28;20044;-80
2024/03/20 03:24:11;;;;;;;27.95;15.43;;;4.30;99.90;;;;;;5055840;28;20048;-79
2024/03/20 03:26:58;;;;;;;24.67;15.70;;;4.30;99.90;;;;;;5074908;28;20044;-79
2024/03/20 03:29:44;;;;;;;29.58;16.23;;;4.30;99.90;;;;;;5069693;28;20044;-79
2024/03/20 03:32:31;;;;;;;27.25;16.33;;;4.30;99.90;;;;;;5070844;28;20097;-83
2024/03/20 03:35:20;;;;;;;34.08;15.82;;;4.40;99.90;;;;;;5070018;28;20052;-82
2024/03/20 03:38:07;;;;;;;26.73;16.08;;;4.40;99.90;;;;;;5070496;28;20052;-83
2024/03/20 03:41:02;;;;;;;30.25;16.63;;;4.60;99.90;;;;;;5070101;28;20101;-80
2024/03/20 03:43:49;;;;;;;27.88;17.45;;;4.70;99.90;;;;;;5071115;28;20044;-79
2024/03/20 03:46:36;;;;;;;26.50;17.17;;;4.80;99.90;;;;;;5071096;28;20040;-82
2024/03/20 03:49:22;;;;;;;25.83;16.95;;;4.80;99.90;;;;;;5069116;28;20046;-81
2024/03/20 03:52:09;;;;;;;29.48;17.60;;;4.70;99.90;;;;;;5070548;28;20044;-80
2024/03/20 03:54:56;;;;;;;24.23;15.18;;;4.60;99.90;;;;;;5070589;28;20554;-82
2024/03/20 03:57:42;;;;;;;23.67;15.20;;;4.60;99.90;;;;;;5080623;28;20058;-81
2024/03/20 04:00:30;;;;;;;19.90;13.52;;;4.50;99.90;;;;;;5081847;28;20123;-80
2024/03/20 04:03:23;;;;;;;21.00;14.02;;;4.40;99.90;;;;;;5081890;28;20496;-80
2024/03/20 04:06:09;;;;;;;23.67;15.10;;;4.30;99.90;;;;;;5102286;28;20104;-80
2024/03/20 04:08:56;;;;;;;25.58;16.00;;;4.30;99.90;;;;;;5095807;28;20048;-80
2024/03/20 04:11:42;;;;;;;27.88;16.05;;;4.30;99.90;;;;;;5076008;28;20044;-79
2024/03/20 04:14:29;;;;;;;23.95;15.48;;;4.20;99.90;;;;;;5076878;28;20044;-79
2024/03/20 04:17:15;;;;;;;20.05;12.35;;;4.20;99.90;;;;;;5080819;28;20048;-79
2024/03/20 04:20:03;;;;;;;29.33;15.77;;;4.10;99.90;;;;;;5076085;28;20036;-84
2024/03/20 04:22:50;;;;;;;28.15;15.77;;;4.10;99.90;;;;;;5075261;28;20043;-79
2024/03/20 04:25:37;;;;;;;32.60;17.15;;;4.00;99.90;;;;;;5083131;28;20055;-79
2024/03/20 04:28:23;;;;;;;28.48;18.02;;;4.00;99.90;;;;;;5081710;28;20047;-79
2024/03/20 04:31:16;;;;;;;34.65;20.88;;;4.10;99.90;;;;;;5073417;28;20062;-81
2024/03/20 04:34:03;;;;;;;39.03;21.90;;;4.10;99.90;;;;;;5071672;28;20051;-81
2024/03/20 04:36:58;;;;;;;39.45;23.10;;;4.30;99.90;;;;;;5077322;28;20222;-83
2024/03/20 04:39:46;;;;;;;44.55;23.33;;;4.40;99.90;;;;;;5081345;28;20036;-81
2024/03/20 04:42:33;;;;;;;44.65;22.23;;;4.50;99.90;;;;;;5068067;28;20565;-80
2024/03/20 04:45:20;;;;;;;25.42;14.98;;;4.50;99.90;;;;;;5069511;28;20469;-80
2024/03/20 04:48:07;;;;;;;23.73;13.68;;;4.50;99.90;;;;;;5081317;28;20123;-82
2024/03/20 04:50:56;;;;;;;24.77;15.07;;;4.30;99.90;;;;;;5071526;28;20055;-82
2024/03/20 04:53:43;;;;;;;26.98;17.45;;;4.10;99.90;;;;;;5063320;28;20520;-79
2024/03/20 04:56:29;;;;;;;27.20;15.63;;;4.00;99.90;;;;;;5073011;28;20052;-81
2024/03/20 04:59:16;;;;;;;31.65;16.85;;;4.00;99.90;;;;;;5072006;28;20050;-83
2024/03/20 05:02:03;;;;;;;35.03;17.35;;;4.00;99.90;;;;;;5058935;28;20051;-81
2024/03/20 05:04:49;;;;;;;36.75;19.90;;;3.90;99.90;;;;;;5072535;28;20044;-80
2024/03/20 05:07:37;;;;;;;41.38;22.45;;;3.90;99.90;;;;;;5057533;28;20040;-83
2024/03/20 05:10:23;;;;;;;52.22;28.27;;;3.90;99.90;;;;;;5072087;28;20522;-81
2024/03/20 05:13:09;;;;;;;58.55;32.35;;;4.10;99.90;;;;;;5073183;28;20040;-82
2024/03/20 05:15:56;;;;;;;66.45;35.72;;;4.40;99.90;;;;;;5082221;28;20073;-83
2024/03/20 05:18:43;;;;;;;65.15;35.88;;;4.50;99.90;;;;;;5057879;28;20040;-81
2024/03/20 05:21:29;;;;;;;67.85;37.95;;;4.70;99.90;;;;;;5073731;28;20065;-81
2024/03/20 05:24:18;;;;;;;60.13;36.17;;;4.80;99.90;;;;;;5081190;28;20511;-80
2024/03/20 05:27:06;;;;;;;65.20;37.63;;;4.80;99.90;;;;;;5049046;28;20044;-80
2024/03/20 05:29:53;;;;;;;69.53;36.53;;;4.90;99.90;;;;;;5059224;28;20044;-81
2024/03/20 05:32:40;;;;;;;73.97;40.67;;;4.90;99.90;;;;;;5076522;28;20100;-81
2024/03/20 05:35:27;;;;;;;68.95;38.85;;;5.00;99.90;;;;;;5074413;28;20040;-81
2024/03/20 05:38:14;;;;;;;77.40;39.58;;;5.00;99.90;;;;;;5071636;28;20048;-82
2024/03/20 05:41:01;;;;;;;70.97;38.90;;;5.00;99.90;;;;;;5058544;28;20057;-81
2024/03/20 05:43:48;;;;;;;75.72;41.50;;;5.00;99.90;;;;;;5071713;28;20552;-82
2024/03/20 05:46:35;;;;;;;68.72;38.05;;;5.00;99.90;;;;;;5071048;28;20097;-82
2024/03/20 05:49:21;;;;;;;64.30;36.05;;;5.00;99.90;;;;;;5059637;28;20667;-82
2024/03/20 05:52:08;;;;;;;67.88;37.25;;;5.00;99.90;;;;;;5072150;28;20052;-83
2024/03/20 05:54:56;;;;;;;62.53;34.47;;;4.90;99.90;;;;;;5081708;28;20516;-80
2024/03/20 05:57:50;;;;;;;61.42;34.78;;;4.90;99.90;;;;;;5070688;28;20210;-83
2024/03/20 06:00:36;;;;;;;62.47;33.65;;;4.80;99.90;;;;;;5063713;28;20047;-80
2024/03/20 06:03:23;;;;;;;67.20;33.80;;;4.90;99.90;;;;;;5066067;28;20040;-82
2024/03/20 06:06:09;;;;;;;61.28;34.45;;;5.00;99.90;;;;;;5071522;28;20109;-82
2024/03/20 06:08:57;;;;;;;65.47;33.72;;;5.10;99.90;;;;;;5066467;28;20119;-82
2024/03/20 06:12:04;;;;;;;168.98;80.68;;;5.10;99.90;;;;;;5082144;28;20048;-80
2024/03/20 06:14:52;;;;;;;71.03;35.95;;;5.20;99.90;;;;;;5075885;28;20044;-82
2024/03/20 06:17:45;;;;;;;63.78;33.05;;;5.20;99.90;;;;;;5074796;28;20036;-79
2024/03/20 06:20:32;;;;;;;54.50;31.48;;;5.30;99.90;;;;;;5074704;28;20040;-78
2024/03/20 06:23:27;;;;;;;56.78;31.70;;;5.40;99.90;;;;;;5065482;28;20044;-81
2024/03/20 06:26:16;;;;;;;51.75;29.17;;;5.50;99.90;;;;;;5074092;28;20044;-80
2024/03/20 06:29:03;;;;;;;50.35;28.08;;;5.70;99.90;;;;;;5074740;28;20052;-80
2024/03/20 06:31:53;;;;;;;48.85;26.15;;;6.10;99.90;;;;;;5087689;28;20047;-78
2024/03/20 06:34:40;;;;;;;46.05;24.40;;;6.40;99.90;;;;;;5086874;28;20054;-80
2024/03/20 06:37:27;;;;;;;42.28;24.73;;;6.80;99.90;;;;;;5086496;28;20043;-77
2024/03/20 06:40:17;;;;;;;33.50;20.85;;;7.40;99.90;;;;;;5085976;28;20067;-80
2024/03/20 06:43:04;;;;;;;31.83;19.08;;;7.90;99.90;;;;;;5072463;28;20131;-81
2024/03/20 06:45:52;;;;;;;30.23;19.35;;;8.10;99.90;;;;;;5086168;28;20062;-77
2024/03/20 06:48:38;;;;;;;28.35;19.42;;;8.20;99.90;;;;;;5061338;28;20123;-81
2024/03/20 06:51:25;;;;;;;23.10;16.85;;;8.40;99.90;;;;;;5082289;28;20048;-77
2024/03/20 06:54:16;;;;;;;25.60;16.95;;;8.60;99.90;;;;;;5095216;28;20477;-78
2024/03/20 06:57:06;;;;;;;18.42;13.90;;;8.90;99.90;;;;;;5087020;28;20058;-80
2024/03/20 06:59:53;;;;;;;21.58;14.90;;;9.00;99.90;;;;;;5071676;28;20047;-81
2024/03/20 07:02:39;;;;;;;17.10;12.30;;;9.00;99.90;;;;;;5092947;28;20043;-77
2024/03/20 07:05:27;;;;;;;15.77;11.75;;;9.10;99.90;;;;;;5082849;28;20718;-78
2024/03/20 07:08:16;;;;;;;14.77;11.00;;;9.10;99.90;;;;;;5093900;28;20508;-81
2024/03/20 07:11:04;;;;;;;14.93;10.38;;;9.70;99.90;;;;;;5072087;28;20040;-78
2024/03/20 07:13:54;;;;;;;14.32;10.20;;;9.90;99.90;;;;;;5076890;28;20054;-82
2024/03/20 07:16:41;;;;;;;13.52;9.70;;;10.00;99.90;;;;;;5086913;28;20044;-78
2024/03/20 07:19:28;;;;;;;12.20;8.20;;;10.30;99.90;;;;;;5070604;28;20104;-79
2024/03/20 07:22:17;;;;;;;9.23;7.40;;;10.50;99.90;;;;;;5087573;28;20058;-79
2024/03/20 07:25:07;;;;;;;9.75;7.35;;;10.90;99.90;;;;;;5071668;28;20044;-79
2024/03/20 07:27:55;;;;;;;11.93;7.38;;;11.10;99.90;;;;;;5074222;28;20048;-79
2024/03/20 07:31:02;;;;;;;12.38;7.85;;;11.20;99.90;;;;;;5077014;28;20044;-81
2024/03/20 07:33:50;;;;;;;10.57;7.40;;;11.30;1.00;;;;;;5081857;28;20078;-80
2024/03/20 07:36:37;;;;;;;9.32;6.93;;;11.50;99.90;;;;;;5078608;28;20511;-79
2024/03/20 07:39:26;;;;;;;10.27;6.53;;;12.00;1.00;;;;;;5052390;28;20465;-78
2024/03/20 07:42:16;;;;;;;7.82;5.65;;;12.40;1.00;;;;;;5084275;28;20052;-78
2024/03/20 07:45:03;;;;;;;11.45;6.50;;;12.60;1.00;;;;;;5081819;28;20538;-79
2024/03/20 07:48:04;;;;;;;11.55;6.68;;;12.70;99.90;;;;;;5073925;28;20040;-79
2024/03/20 07:51:06;;;;;;;7.50;6.00;;;12.80;1.00;;;;;;5074326;28;20517;-79
2024/03/20 07:53:52;;;;;;;8.00;6.40;;;12.80;99.90;;;;;;5088726;28;20150;-79
2024/03/20 07:56:39;;;;;;;11.35;6.78;;;13.10;99.90;;;;;;5072399;28;20048;-78
2024/03/20 07:59:26;;;;;;;9.18;5.88;;;13.20;99.90;;;;;;5074516;28;20573;-81
2024/03/20 08:02:13;;;;;;;10.23;5.75;;;13.60;99.90;;;;;;5073928;28;20054;-79
2024/03/20 08:05:00;;;;;;;6.95;5.18;;;13.70;1.00;;;;;;5075254;28;20462;-79
2024/03/20 08:07:46;;;;;;;6.43;5.15;;;13.60;1.00;;;;;;5058096;28;20044;-80
2024/03/20 08:10:33;;;;;;;8.48;5.15;;;13.70;1.00;;;;;;5061507;28;20419;-78
2024/03/20 08:13:19;;;;;;;6.20;4.80;;;13.90;1.00;;;;;;5090436;28;20048;-77
2024/03/20 08:16:07;;;;;;;5.28;4.45;;;14.10;99.90;;;;;;5074017;28;20048;-80
2024/03/20 08:18:53;;;;;;;8.15;4.40;;;14.40;99.90;;;;;;5089125;28;20055;-77
2024/03/20 08:21:40;;;;;;;6.18;4.50;;;14.80;99.90;;;;;;5082963;28;20055;-81
2024/03/20 08:24:26;;;;;;;6.07;3.97;;;15.30;99.90;;;;;;5078131;28;20055;-80
2024/03/20 08:27:13;;;;;;;4.90;3.58;;;15.90;99.90;;;;;;5085609;28;20044;-80
2024/03/20 08:30:00;;;;;;;3.83;3.35;;;16.60;99.90;;;;;;5091535;28;20051;-81
2024/03/20 08:32:46;;;;;;;4.53;3.30;;;16.60;99.90;;;;;;5078158;28;20123;-77
2024/03/20 08:35:42;;;;;;;4.70;3.20;;;16.60;99.90;;;;;;5086249;28;20043;-78
2024/03/20 08:38:37;;;;;;;6.40;3.60;;;17.20;99.90;;;;;;5083738;28;20048;-78
2024/03/20 08:41:24;;;;;;;6.22;3.60;;;17.40;99.90;;;;;;5089396;28;20041;-78
2024/03/20 08:44:20;;;;;;;6.97;3.25;;;18.10;99.90;;;;;;5089845;28;20048;-81
2024/03/20 08:47:09;;;;;;;3.70;3.05;;;18.80;99.90;;;;;;5085150;28;20044;-78
2024/03/20 08:49:56;;;;;;;5.35;3.03;;;19.00;99.90;;;;;;5084669;28;20373;-81
2024/03/20 08:52:44;;;;;;;5.97;3.10;;;18.60;99.90;;;;;;5070512;28;20048;-78
2024/03/20 08:55:30;;;;;;;4.60;3.28;;;18.70;92.00;;;;;;5071481;28;20047;-78
2024/03/20 08:58:16;;;;;;;6.43;3.38;;;18.50;74.10;;;;;;5070846;28;20043;-81
2024/03/20 09:01:05;;;;;;;8.80;3.78;;;18.30;69.10;;;;;;5074121;28;20074;-77
2024/03/20 09:03:54;;;;;;;4.35;3.22;;;18.00;62.40;;;;;;5086670;28;20050;-80
2024/03/20 09:06:42;;;;;;;7.40;4.05;;;17.80;59.50;;;;;;5072830;28;20036;-78
2024/03/20 09:09:31;;;;;;;5.57;3.10;;;17.50;64.00;;;;;;5083429;28;20054;-78
2024/03/20 09:12:17;;;;;;;5.18;3.60;;;17.80;58.10;;;;;;5094219;28;20126;-78
2024/03/20 09:15:07;;;;;;;4.80;3.30;;;18.40;54.70;;;;;;5085117;28;20044;-79
2024/03/20 09:17:53;;;;;;;3.70;3.10;;;19.20;53.30;;;;;;5083838;28;20048;-80
2024/03/20 09:20:40;;;;;;;3.70;2.88;;;20.60;34.60;;;;;;5088615;28;20044;-80
2024/03/20 09:23:27;;;;;;;3.65;2.72;;;21.30;26.80;;;;;;5084470;28;20051;-79
2024/03/20 09:26:14;;;;;;;3.53;2.38;;;21.60;4.70;;;;;;5083021;28;20438;-79
2024/03/20 09:29:01;;;;;;;5.15;2.22;;;21.70;1.00;;;;;;5083675;28;20064;-79
2024/03/20 09:31:48;;;;;;;5.13;2.78;;;21.60;1.00;;;;;;5086178;28;20048;-80
2024/03/20 09:34:36;;;;;;;5.70;2.42;;;20.80;1.00;;;;;;5086076;28;20048;-80
2024/03/20 09:37:22;;;;;;;3.67;2.40;;;21.50;1.00;;;;;;5055521;28;20058;-80
2024/03/20 09:40:12;;;;;;;4.78;1.77;;;21.80;1.00;;;;;;5083262;28;20040;-80
2024/03/20 09:42:59;;;;;;;3.47;1.85;;;22.70;1.00;;;;;;5083213;28;20044;-80
2024/03/20 09:45:45;;;;;;;2.47;1.48;;;22.40;1.00;;;;;;5089473;28;20100;-80
2024/03/20 09:48:34;;;;;;;2.40;1.52;;;22.10;1.00;;;;;;5092801;28;20052;-79
2024/03/20 09:51:21;;;;;;;5.40;1.80;;;22.50;1.00;;;;;;5063206;28;20040;-81
2024/03/20 09:54:08;;;;;;;2.67;1.80;;;22.70;1.00;;;;;;5092062;28;20040;-82
2024/03/20 09:56:55;;;;;;;2.47;1.45;;;23.10;1.00;;;;;;5061050;28;20052;-81
2024/03/20 09:59:51;;;;;;;1.20;0.98;;;23.50;1.00;;;;;;5069533;28;20047;-79
2024/03/20 10:02:38;;;;;;;2.42;1.08;;;23.50;1.00;;;;;;5060433;28;20127;-80
2024/03/20 10:05:24;;;;;;;1.35;0.80;;;23.40;1.00;;;;;;5059662;28;20052;-81
2024/03/20 10:08:12;;;;;;;2.40;1.00;;;24.00;1.00;;;;;;5088297;28;20103;-81
2024/03/20 10:11:02;;;;;;;2.45;0.88;;;23.60;1.00;;;;;;5073880;28;20052;-81
2024/03/20 10:13:49;;;;;;;1.90;0.93;;;23.30;1.00;;;;;;5079970;28;20044;-79
2024/03/20 10:16:36;;;;;;;2.78;1.10;;;22.90;1.00;;;;;;5075642;28;20393;-80
2024/03/20 10:19:25;;;;;;;1.30;0.90;;;22.50;1.00;;;;;;5071731;28;20067;-80
2024/03/20 10:22:12;;;;;;;1.77;1.10;;;22.40;1.00;;;;;;5056521;28;20591;-80
2024/03/20 10:25:01;;;;;;;2.13;0.70;;;22.70;1.00;;;;;;5068846;28;20036;-80
2024/03/20 10:27:53;;;;;;;2.67;0.70;;;23.70;1.00;;;;;;5069191;28;20358;-80
2024/03/20 10:30:41;;;;;;;;;;;23.80;1.00;;;;;;5075898;28;20044;-78
2024/03/20 10:33:28;;;;;;;0.77;0.70;;;23.70;1.00;;;;;;5077963;28;19920;-80
2024/03/20 10:36:18;;;;;;;1.60;0.80;;;24.10;1.00;;;;;;5063251;28;20048;-79
2024/03/20 10:39:17;;;;;;;2.83;1.10;;;24.50;1.00;;;;;;5072453;28;20375;-80
2024/03/20 10:42:08;;;;;;;0.95;0.60;;;24.90;1.00;;;;;;5054552;28;20046;-80
2024/03/20 10:44:57;;;;;;;1.00;0.80;;;24.40;1.00;;;;;;5069618;28;20040;-80
2024/03/20 10:47:45;;;;;;;1.67;1.00;;;23.70;1.00;;;;;;5054925;28;20040;-81
2024/03/20 10:50:41;;;;;;;4.70;1.63;;;22.80;1.00;;;;;;5069250;28;20046;-79
2024/03/20 10:53:31;;;;;;;3.95;0.75;;;22.10;1.00;;;;;;5071629;28;20036;-79
2024/03/20 10:56:20;;;;;;;1.33;0.73;;;22.50;1.00;;;;;;5069373;28;20062;-79
2024/03/20 10:59:23;;;;;;;2.28;0.80;;;23.00;1.00;;;;;;5070034;28;20415;-79
2024/03/20 11:02:15;;;;;;;1.35;0.82;;;23.70;1.00;;;;;;5071053;28;20136;-81
2024/03/20 11:05:02;;;;;;;0.85;0.70;;;23.70;1.00;;;;;;5071668;28;20044;-80
2024/03/20 11:07:49;;;;;;;3.65;0.80;;;24.10;1.00;;;;;;5070806;28;20050;-80
2024/03/20 11:10:36;;;;;;;1.48;0.77;;;24.60;1.00;;;;;;5056105;28;20051;-80
2024/03/20 11:13:24;;;;;;;1.63;0.93;;;24.90;1.00;;;;;;5058542;28;20044;-79
2024/03/20 11:16:21;;;;;;;2.22;0.73;;;25.50;1.00;;;;;;5071943;28;20058;-80
2024/03/20 11:19:09;;;;;;;0.93;0.57;;;25.60;1.00;;;;;;5066490;28;20044;-80
2024/03/20 11:21:59;;;;;;;2.05;0.60;;;25.40;1.00;;;;;;5073379;28;20047;-80
2024/03/20 11:24:47;;;;;;;2.97;0.50;;;23.90;1.00;;;;;;5077455;28;20044;-79
2024/03/20 11:27:33;;;;;;;0.60;0.60;;;23.80;1.00;;;;;;5072956;28;20046;-80
2024/03/20 11:30:21;;;;;;;1.65;0.70;;;23.60;1.00;;;;;;5080480;28;20058;-80
2024/03/20 11:33:17;;;;;;;0.82;0.80;;;23.70;1.00;;;;;;5081273;28;20132;-79
2024/03/20 11:36:04;;;;;;;1.77;0.70;;;23.80;1.00;;;;;;5073292;28;20044;-79
2024/03/20 11:38:51;;;;;;;0.60;0.50;;;24.40;1.00;;;;;;5057562;28;20127;-79
2024/03/20 11:41:37;;;;;;;0.77;0.50;;;24.40;1.00;;;;;;5075349;28;20083;-80
2024/03/20 11:44:26;;;;;;;1.35;0.68;;;24.90;1.00;;;;;;5056665;28;20051;-79
2024/03/20 11:47:15;;;;;;;0.52;0.50;;;25.40;1.00;;;;;;5070532;28;20515;-79
2024/03/20 11:50:02;;;;;;;1.63;0.63;;;25.50;1.00;;;;;;5071491;28;20044;-81
2024/03/20 11:53:06;;;;;;;0.82;0.73;;;26.00;1.00;;;;;;5057934;28;20727;-80
2024/03/20 11:55:53;;;;;;;2.80;0.68;;;26.60;1.00;;;;;;5070167;28;20500;-80
2024/03/20 11:58:43;;;;;;;1.15;0.70;;;26.80;1.00;;;;;;5071387;28;20044;-79
2024/03/20 12:01:34;;;;;;;1.77;0.60;;;25.30;1.00;;;;;;5073260;28;20100;-78
2024/03/20 12:04:25;;;;;;;3.65;1.30;;;24.80;1.00;;;;;;5072983;28;20040;-78
2024/03/20 12:07:32;;;;;;;1.50;0.70;;;23.60;1.00;;;;;;5057794;28;20040;-79
2024/03/20 12:10:38;;;;;;;0.60;0.60;;;24.60;1.00;;;;;;5072021;28;20483;-81
2024/03/20 12:13:27;;;;;;;1.05;0.70;;;25.50;1.00;;;;;;5070306;28;20486;-77
2024/03/20 12:16:14;;;;;;;0.50;0.43;;;25.60;1.00;;;;;;5071103;28;20134;-80
2024/03/20 12:19:01;;;;;;;1.25;0.80;;;25.40;1.00;;;;;;5072676;28;20719;-80
2024/03/20 12:21:48;;;;;;;1.88;0.93;;;24.50;1.00;;;;;;5064292;28;20058;-79
2024/03/20 12:24:34;;;;;;;2.40;0.82;;;24.20;1.00;;;;;;5080406;28;20066;-79
2024/03/20 12:27:21;;;;;;;0.90;0.70;;;23.80;1.00;;;;;;5065037;28;20044;-80
2024/03/20 12:30:10;;;;;;;2.75;0.90;;;24.00;1.00;;;;;;5081398;28;20055;-79
2024/03/20 12:32:57;;;;;;;2.47;0.82;;;24.40;1.00;;;;;;5080899;28;20130;-79
2024/03/20 12:35:45;;;;;;;1.55;0.70;;;25.40;1.00;;;;;;5072298;28;20044;-80
2024/03/20 12:38:31;;;;;;;1.00;0.68;;;26.00;1.00;;;;;;5060992;28;20530;-80
2024/03/20 12:41:19;;;;;;;1.35;0.80;;;25.90;1.00;;;;;;5074076;28;20046;-78
2024/03/20 12:44:09;;;;;;;0.90;0.40;;;26.00;1.00;;;;;;5074380;28;20090;-79
2024/03/20 12:46:56;;;;;;;1.58;0.70;;;26.70;1.00;;;;;;5057084;28;20055;-80
2024/03/20 12:49:48;;;;;;;0.50;0.40;;;26.20;1.00;;;;;;5059118;28;20051;-78
2024/03/20 12:52:39;;;;;;;3.47;0.63;;;26.80;1.00;;;;;;5061932;28;20044;-78
2024/03/20 12:55:27;;;;;;;1.08;0.52;;;27.00;1.00;;;;;;5073402;28;20504;-80
2024/03/20 12:58:16;;;;;;;2.28;0.90;;;26.10;1.00;;;;;;5073842;28;20520;-79
2024/03/20 13:01:04;;;;;;;0.77;0.45;;;25.50;1.00;;;;;;5072398;28;20504;-80
2024/03/20 13:03:51;;;;;;;1.85;0.80;;;25.20;1.00;;;;;;5075791;28;20071;-78
2024/03/20 13:06:38;;;;;;;1.25;0.50;;;25.80;1.00;;;;;;5069389;28;20036;-80
2024/03/20 13:09:26;;;;;;;2.03;0.40;;;26.70;1.00;;;;;;5079232;28;20050;-79
2024/03/20 13:12:14;;;;;;;1.13;0.57;;;27.20;1.00;;;;;;5072531;28;20094;-78
2024/03/20 13:15:05;;;;;;;0.55;0.55;;;27.80;1.00;;;;;;5072523;28;20373;-78
2024/03/20 13:17:52;;;;;;;1.05;0.47;;;27.90;1.00;;;;;;5078290;28;20410;-79
2024/03/20 13:20:40;;;;;;;1.98;0.45;;;27.90;1.00;;;;;;5068217;28;20511;-79
2024/03/20 13:23:30;;;;;;;1.25;0.50;;;28.80;1.00;;;;;;5069351;28;20508;-79
2024/03/20 13:26:23;;;;;;;1.95;0.38;;;29.10;1.00;;;;;;5070841;28;20424;-78
2024/03/20 13:29:10;;;;;;;1.85;0.50;;;29.60;1.00;;;;;;5068433;28;20040;-79
2024/03/20 13:31:58;;;;;;;0.50;0.40;;;29.60;1.00;;;;;;5070606;28;20058;-79
2024/03/20 13:34:51;;;;;;;1.85;0.20;;;30.00;1.00;;;;;;5069079;28;20538;-78
2024/03/20 13:37:40;;;;;;;0.50;0.20;;;29.10;1.00;;;;;;5070314;28;20044;-79
2024/03/20 13:40:32;;;;;;;1.45;0.90;;;28.60;1.00;;;;;;5058070;28;20512;-80
2024/03/20 13:43:28;;;;;;;0.63;0.50;;;28.70;1.00;;;;;;5044265;28;20044;-79
2024/03/20 13:46:15;;;;;;;3.75;0.35;;;27.90;1.00;;;;;;5071164;28;20446;-80
2024/03/20 13:49:02;;;;;;;0.60;0.30;;;27.80;1.00;;;;;;5057716;28;20044;-81
2024/03/20 13:51:49;;;;;;;0.60;0.40;;;27.80;1.00;;;;;;5076732;28;20044;-81
2024/03/20 13:54:35;;;;;;;1.60;0.60;;;26.30;1.00;;;;;;5066592;28;20044;-82
2024/03/20 13:57:22;;;;;;;0.75;0.40;;;26.00;1.00;;;;;;5075873;28;20032;-79
2024/03/20 14:00:16;;;;;;;1.65;0.20;;;26.50;1.00;;;;;;5102310;28;20036;-81
2024/03/20 14:03:03;;;;;;;0.95;0.38;;;26.70;1.00;;;;;;5089806;28;20044;-79
2024/03/20 14:05:50;;;;;;;2.17;0.38;;;27.40;1.00;;;;;;5089997;28;20052;-81
2024/03/20 14:08:36;;;;;;;0.40;0.32;;;27.80;1.00;;;;;;5084565;28;20048;-80
2024/03/20 14:11:23;;;;;;;0.90;0.50;;;27.70;1.00;;;;;;5082981;28;20044;-81
2024/03/20 14:14:10;;;;;;;0.57;0.30;;;27.30;1.00;;;;;;5084901;28;20048;-81
2024/03/20 14:16:57;;;;;;;1.45;0.70;;;26.60;1.00;;;;;;5084894;28;20036;-82
2024/03/20 14:19:56;;;;;;;2.25;0.60;;;25.60;1.00;;;;;;5058555;28;20057;-80
2024/03/20 14:22:44;;;;;;;2.35;0.70;;;24.60;1.00;;;;;;5057931;28;20052;-84
2024/03/20 14:25:33;;;;;;;1.15;0.55;;;25.40;1.00;;;;;;5058330;28;20391;-83
2024/03/20 14:28:22;;;;;;;2.25;0.90;;;26.40;1.00;;;;;;5086332;28;20496;-80
2024/03/20 14:31:15;;;;;;;1.48;0.60;;;26.10;1.00;;;;;;5065659;28;20044;-80
2024/03/20 14:34:02;;;;;;;1.10;0.50;;;25.10;1.00;;;;;;5091862;28;20052;-78